Time;durP1;ratioP1;P1;durP2;ratioP2;P2;SDS_P1;SDS_P2;PMS_P1;PMS_P2;Temp;Humidity;BMP_temperature;BMP_pressure;BME280_temperature;BME280_humidity;BME280_pressure;Samples;Min_cycle;Max_cycle;Signal;HPM_P1;HPM_P2
2021/10/15 03:29:01;;;;;;;8.50;5.30;;;10.70;99.90;;;;;;4783253;29;20100;-80
2021/10/15 07:31:41;;;;;;;;;;;;;;;;;;;;;
2021/10/15 08:13:04;;;;;;;;;;;;;;;;;;;;;
2021/10/15 08:36:50;;;;;;;;;;;;;;;;;;;;;
2021/10/15 08:40:02;;;;;;;5.53;2.53;;;20.20;89.60;;;;;;4916004;29;20047;-79
2021/10/15 08:42:56;;;;;;;5.53;2.55;;;22.10;85.20;;;;;;4889442;29;20039;-80
2021/10/15 08:46:19;;;;;;;;;;;;;;;;;;;;;
2021/10/15 10:28:55;;;;;;;;;;;;;;;;;;;;;
2021/10/15 10:49:38;;;;;;;;;;;;;;;;;;;;;
2021/10/15 11:28:09;;;;;;;;;;;;;;;;;;;;;
2021/10/15 11:38:51;;;;;;;;;;;;;;;;;;;;;
2021/10/15 11:44:41;;;;;;;4.77;1.40;;;18.80;80.70;;;;;;4717399;30;20043;-82
2021/10/15 11:51:15;;;;;;;;;;;;;;;;;;;;;
2021/10/15 12:38:46;;;;;;;;;;;;;;;;;;;;;
2021/10/15 14:31:47;;;;;;;2.42;1.90;;;17.60;74.50;;;;;;4912243;29;20098;-81
2021/10/15 14:55:33;;;;;;;2.40;1.65;;;17.50;73.50;;;;;;4911076;29;20459;-81
2021/10/15 14:58:42;;;;;;;;;;;;;;;;;;;;;
2021/10/15 15:08:27;;;;;;;3.15;1.90;;;17.50;74.30;;;;;;4983556;28;20033;-80
2021/10/15 16:18:05;;;;;;;3.55;2.80;;;15.90;78.80;;;;;;4951689;29;20608;-85
2021/10/15 16:24:43;;;;;;;;;;;;;;;;;;;;;
2021/10/15 16:42:49;;;;;;;7.55;5.03;;;15.20;82.40;;;;;;5007632;28;20061;-75
2021/10/15 16:45:15;;;;;;;5.32;3.78;;;15.00;82.70;;;;;;5000446;28;20038;-77
2021/10/15 16:47:42;;;;;;;6.03;3.88;;;15.00;83.20;;;;;;5015027;28;20038;-79
2021/10/15 16:50:08;;;;;;;8.70;3.88;;;14.90;82.50;;;;;;5014790;28;20038;-79
2021/10/15 16:52:34;;;;;;;6.85;3.58;;;14.90;82.90;;;;;;5014565;28;20524;-79
2021/10/15 16:55:00;;;;;;;4.72;4.05;;;14.90;82.90;;;;;;5014292;28;20058;-78
2021/10/15 16:57:26;;;;;;;4.85;3.50;;;14.80;82.90;;;;;;5014285;28;20084;-78
2021/10/15 16:59:52;;;;;;;4.22;3.45;;;14.80;83.10;;;;;;5014660;28;20026;-72
2021/10/15 17:02:18;;;;;;;6.38;4.35;;;14.70;83.10;;;;;;5014442;28;20025;-77
2021/10/15 17:04:44;;;;;;;6.32;4.20;;;14.70;83.90;;;;;;5014279;28;20489;-78
2021/10/15 17:07:09;;;;;;;4.70;3.28;;;14.60;83.10;;;;;;5010995;28;20034;-77
2021/10/15 17:09:36;;;;;;;6.78;4.68;;;14.60;83.00;;;;;;5000426;28;20439;-74
2021/10/15 17:12:02;;;;;;;7.05;4.75;;;14.60;83.40;;;;;;5013989;28;20076;-78
2021/10/15 17:14:28;;;;;;;5.32;4.07;;;14.50;83.50;;;;;;5013826;28;20033;-76
2021/10/15 17:16:54;;;;;;;11.25;4.68;;;14.40;83.60;;;;;;5014021;28;20034;-75
2021/10/15 17:19:20;;;;;;;6.00;4.80;;;14.40;84.00;;;;;;5013755;28;20022;-77
2021/10/15 17:21:45;;;;;;;8.05;5.05;;;14.30;84.10;;;;;;5014359;28;20034;-77
2021/10/15 17:24:12;;;;;;;14.13;9.95;;;14.30;84.30;;;;;;5014201;28;20030;-77
2021/10/15 17:26:38;;;;;;;6.13;4.35;;;14.30;84.60;;;;;;5009226;28;20037;-76
2021/10/15 17:29:03;;;;;;;6.00;3.83;;;14.30;84.70;;;;;;5013726;28;20046;-73
2021/10/15 17:31:29;;;;;;;6.35;4.28;;;14.20;84.40;;;;;;5013932;28;20088;-77
2021/10/15 17:33:55;;;;;;;6.07;3.85;;;14.20;84.10;;;;;;5008786;28;20061;-74
2021/10/15 17:36:20;;;;;;;5.70;3.95;;;14.20;84.80;;;;;;5007884;28;20034;-77
2021/10/15 17:38:47;;;;;;;8.45;4.32;;;14.10;85.30;;;;;;5006102;28;20030;-74
2021/10/15 17:41:13;;;;;;;8.23;4.28;;;14.10;86.30;;;;;;5011403;28;20054;-74
2021/10/15 17:43:39;;;;;;;10.20;4.50;;;14.00;86.90;;;;;;5005578;28;20393;-75
2021/10/15 17:46:04;;;;;;;8.38;4.88;;;14.00;87.30;;;;;;5007197;28;20022;-74
2021/10/15 17:48:30;;;;;;;11.23;4.45;;;14.00;87.80;;;;;;5009430;28;20030;-72
2021/10/15 17:50:57;;;;;;;12.35;5.10;;;13.90;87.70;;;;;;5010589;28;20030;-75
2021/10/15 17:53:23;;;;;;;6.45;4.80;;;13.90;88.20;;;;;;5013237;28;20038;-75
2021/10/15 17:55:49;;;;;;;8.50;4.95;;;13.80;88.10;;;;;;4996208;28;20027;-75
2021/10/15 17:58:15;;;;;;;7.43;4.78;;;13.70;88.70;;;;;;5009408;28;20038;-75
2021/10/15 18:00:41;;;;;;;10.32;4.88;;;13.70;89.60;;;;;;5004661;28;20069;-74
2021/10/15 18:03:07;;;;;;;7.82;5.18;;;13.70;89.30;;;;;;5007551;28;20030;-74
2021/10/15 18:05:32;;;;;;;8.82;5.28;;;13.60;89.20;;;;;;5000554;28;20026;-73
2021/10/15 18:07:59;;;;;;;6.00;4.80;;;13.60;89.00;;;;;;5006958;28;20026;-76
2021/10/15 18:10:25;;;;;;;8.45;5.10;;;13.60;89.40;;;;;;5010304;28;20061;-74
2021/10/15 18:12:52;;;;;;;8.38;5.95;;;13.60;89.70;;;;;;5013261;28;20398;-76
2021/10/15 18:15:18;;;;;;;15.23;5.32;;;13.60;89.60;;;;;;5012467;28;20548;-76
2021/10/15 18:17:45;;;;;;;13.63;5.70;;;13.60;89.90;;;;;;5012842;28;20037;-77
2021/10/15 18:20:11;;;;;;;8.25;5.22;;;13.60;90.00;;;;;;5012337;28;20026;-73
2021/10/15 18:22:38;;;;;;;12.30;6.05;;;13.60;89.60;;;;;;5011587;28;20026;-76
2021/10/15 18:25:04;;;;;;;7.30;5.55;;;13.50;90.20;;;;;;5012447;28;20026;-74
2021/10/15 18:27:29;;;;;;;11.95;6.40;;;13.50;90.40;;;;;;5011064;28;20045;-75
2021/10/15 18:29:55;;;;;;;12.48;5.82;;;13.50;90.60;;;;;;4998604;28;20021;-73
2021/10/15 18:32:21;;;;;;;12.70;6.30;;;13.50;90.80;;;;;;4999494;28;20042;-75
2021/10/15 18:34:47;;;;;;;10.30;6.57;;;13.50;90.90;;;;;;5008488;28;20030;-73
2021/10/15 18:37:16;;;;;;;9.90;6.18;;;13.40;91.20;;;;;;5012430;28;20041;-75
2021/10/15 18:39:42;;;;;;;9.63;6.65;;;13.30;91.40;;;;;;5007538;28;20176;-75
2021/10/15 18:42:08;;;;;;;10.45;6.47;;;13.30;91.50;;;;;;5007110;28;20459;-74
2021/10/15 18:44:34;;;;;;;16.50;7.03;;;13.30;91.20;;;;;;5004062;28;20041;-75
2021/10/15 18:47:00;;;;;;;10.55;5.88;;;13.30;91.30;;;;;;4999698;28;20412;-78
2021/10/15 18:49:26;;;;;;;8.85;5.70;;;13.20;91.30;;;;;;5008021;28;20111;-76
2021/10/15 18:51:51;;;;;;;13.15;6.00;;;13.20;91.40;;;;;;5008705;28;20046;-74
2021/10/15 18:54:17;;;;;;;8.00;6.20;;;13.20;91.40;;;;;;5008648;28;20493;-77
2021/10/15 18:56:43;;;;;;;8.73;5.70;;;13.20;91.30;;;;;;5006598;28;20034;-76
2021/10/15 18:59:09;;;;;;;17.08;5.78;;;13.20;91.20;;;;;;4997403;28;20445;-78
2021/10/15 19:01:35;;;;;;;9.30;5.82;;;13.10;91.00;;;;;;5007818;28;20064;-74
2021/10/15 19:04:00;;;;;;;9.07;5.20;;;13.10;91.00;;;;;;5005083;28;20038;-75
2021/10/15 19:06:26;;;;;;;11.40;6.10;;;13.20;91.00;;;;;;5006938;28;20117;-73
2021/10/15 19:08:52;;;;;;;11.63;5.25;;;13.20;91.10;;;;;;5004405;28;20023;-75
2021/10/15 19:11:17;;;;;;;20.65;5.60;;;13.10;91.00;;;;;;5025504;28;20482;-73
2021/10/15 19:13:43;;;;;;;11.43;5.75;;;13.20;90.90;;;;;;5004857;28;20088;-77
2021/10/15 19:16:09;;;;;;;9.57;5.40;;;13.20;91.00;;;;;;5000641;28;20088;-74
2021/10/15 19:18:35;;;;;;;7.55;5.20;;;13.10;91.00;;;;;;4996342;28;20021;-73
2021/10/15 19:21:02;;;;;;;8.88;5.68;;;13.10;90.80;;;;;;5010675;28;20441;-76
2021/10/15 19:23:31;;;;;;;8.70;5.85;;;13.10;90.80;;;;;;5010958;28;20096;-72
2021/10/15 19:25:57;;;;;;;10.25;5.95;;;13.10;90.80;;;;;;5010186;28;20053;-73
2021/10/15 19:28:24;;;;;;;9.40;5.28;;;13.00;90.90;;;;;;5011505;28;20113;-77
2021/10/15 19:30:50;;;;;;;8.90;5.50;;;13.00;90.80;;;;;;5003556;28;20065;-78
2021/10/15 19:33:16;;;;;;;8.15;5.60;;;13.00;90.70;;;;;;4997295;28;20440;-75
2021/10/15 19:35:42;;;;;;;8.85;5.00;;;13.00;90.50;;;;;;4994205;28;20034;-75
2021/10/15 19:38:09;;;;;;;8.45;5.43;;;13.00;90.40;;;;;;5011221;28;20421;-77
2021/10/15 19:40:35;;;;;;;8.73;5.00;;;13.00;90.40;;;;;;5019141;28;20128;-77
2021/10/15 19:43:01;;;;;;;7.80;5.32;;;13.00;90.20;;;;;;5011734;28;20030;-75
2021/10/15 19:45:27;;;;;;;7.53;5.38;;;13.00;90.30;;;;;;5011783;28;20445;-75
2021/10/15 19:47:53;;;;;;;9.13;5.47;;;13.00;90.00;;;;;;5011381;28;20030;-77
2021/10/15 19:50:19;;;;;;;7.18;5.28;;;13.10;89.40;;;;;;5011193;28;20398;-76
2021/10/15 19:52:44;;;;;;;8.95;5.32;;;13.10;89.50;;;;;;5011297;28;20045;-74
2021/10/15 19:55:10;;;;;;;7.15;5.57;;;13.10;89.40;;;;;;5010846;28;20038;-74
2021/10/15 19:57:36;;;;;;;7.82;5.38;;;13.20;89.40;;;;;;5010779;28;20026;-73
2021/10/15 20:00:02;;;;;;;8.20;5.20;;;13.10;89.60;;;;;;5012729;28;20045;-74
2021/10/15 20:02:28;;;;;;;7.57;4.70;;;13.20;89.40;;;;;;5006886;28;20398;-76
2021/10/15 20:04:53;;;;;;;9.18;5.43;;;13.20;89.80;;;;;;4998360;28;20161;-76
2021/10/15 20:07:19;;;;;;;9.38;4.97;;;13.20;89.60;;;;;;5012939;28;20042;-77
2021/10/15 20:09:45;;;;;;;14.80;5.57;;;13.20;89.90;;;;;;5015147;28;20022;-73
2021/10/15 20:12:10;;;;;;;9.13;5.82;;;13.20;90.20;;;;;;5014579;28;20563;-75
2021/10/15 20:14:36;;;;;;;6.80;4.90;;;13.20;90.40;;;;;;5015020;28;20076;-71
2021/10/15 20:17:02;;;;;;;11.60;5.68;;;13.10;90.60;;;;;;5015376;28;20385;-77
2021/10/15 20:19:28;;;;;;;14.95;5.60;;;13.10;90.70;;;;;;5014696;28;20026;-76
2021/10/15 20:21:53;;;;;;;9.57;5.47;;;13.10;90.60;;;;;;5014766;28;20121;-75
2021/10/15 20:24:19;;;;;;;14.60;5.90;;;13.10;90.90;;;;;;5014886;28;20037;-79
2021/10/15 20:26:45;;;;;;;7.13;5.75;;;13.10;90.90;;;;;;5014809;28;20093;-76
2021/10/15 20:29:12;;;;;;;8.52;5.78;;;13.10;91.00;;;;;;5014676;28;20030;-74
2021/10/15 20:31:37;;;;;;;17.02;5.57;;;13.00;91.20;;;;;;5014893;28;20042;-77
2021/10/15 20:34:03;;;;;;;8.07;5.70;;;13.00;91.40;;;;;;5013231;28;20489;-76
2021/10/15 20:36:30;;;;;;;11.43;5.22;;;12.90;91.20;;;;;;5014687;28;20038;-73
2021/10/15 20:38:55;;;;;;;9.48;5.97;;;13.00;91.30;;;;;;5014394;28;20533;-77
2021/10/15 20:41:22;;;;;;;9.30;5.78;;;13.00;91.50;;;;;;5014318;28;20129;-77
2021/10/15 20:43:49;;;;;;;9.55;6.00;;;12.90;91.70;;;;;;5004198;28;20023;-77
2021/10/15 20:46:15;;;;;;;8.52;5.82;;;13.00;92.00;;;;;;4994856;28;20560;-75
2021/10/15 20:48:40;;;;;;;9.73;6.03;;;13.00;92.00;;;;;;5006084;28;20057;-72
2021/10/15 20:51:06;;;;;;;10.80;6.13;;;13.00;91.70;;;;;;5029801;28;20120;-77
2021/10/15 20:53:33;;;;;;;11.20;6.47;;;13.00;92.00;;;;;;5015357;28;20466;-77
2021/10/15 20:56:00;;;;;;;9.85;5.68;;;13.00;92.40;;;;;;5014113;28;20030;-76
2021/10/15 20:58:26;;;;;;;9.05;6.38;;;13.00;92.40;;;;;;5014115;28;20037;-75
2021/10/15 21:00:52;;;;;;;12.57;7.47;;;13.00;92.50;;;;;;5013811;28;20030;-78
2021/10/15 21:03:18;;;;;;;11.68;6.18;;;13.00;92.50;;;;;;5014573;28;20037;-73
2021/10/15 21:05:44;;;;;;;12.90;7.03;;;12.90;92.70;;;;;;5014277;28;20386;-78
2021/10/15 21:08:10;;;;;;;8.73;5.80;;;12.90;92.90;;;;;;5014593;28;20026;-77
2021/10/15 21:10:37;;;;;;;16.15;6.20;;;12.90;93.00;;;;;;5013407;28;20133;-76
2021/10/15 21:13:03;;;;;;;22.05;6.40;;;12.80;92.90;;;;;;5013103;28;20073;-77
2021/10/15 21:15:29;;;;;;;17.08;6.68;;;12.80;93.00;;;;;;5014064;28;20080;-74
2021/10/15 21:17:54;;;;;;;12.20;6.72;;;12.80;93.00;;;;;;5013796;28;20045;-77
2021/10/15 21:20:20;;;;;;;9.38;6.40;;;12.80;93.30;;;;;;5013709;28;20085;-76
2021/10/15 21:22:47;;;;;;;7.65;5.78;;;12.80;93.40;;;;;;5013985;28;20474;-75
2021/10/15 21:25:13;;;;;;;8.48;6.15;;;12.70;93.40;;;;;;5013280;28;20030;-77
2021/10/15 21:27:39;;;;;;;11.35;6.60;;;12.70;93.50;;;;;;5012558;28;20197;-77
2021/10/15 21:30:06;;;;;;;11.77;7.30;;;12.70;93.50;;;;;;5013463;28;20084;-76
2021/10/15 21:32:32;;;;;;;12.55;6.45;;;12.70;93.60;;;;;;5010981;28;20057;-77
2021/10/15 21:34:58;;;;;;;14.25;6.95;;;12.70;93.60;;;;;;5019627;28;20061;-78
2021/10/15 21:37:24;;;;;;;9.23;6.90;;;12.70;93.80;;;;;;5013580;28;20061;-78
2021/10/15 21:39:50;;;;;;;10.52;6.75;;;12.70;93.90;;;;;;5013350;28;20124;-77
2021/10/15 21:42:15;;;;;;;11.70;6.72;;;12.60;94.10;;;;;;5013246;28;20117;-76
2021/10/15 21:44:41;;;;;;;8.80;6.68;;;12.60;94.30;;;;;;5013417;28;20112;-76
2021/10/15 21:47:07;;;;;;;9.85;6.97;;;12.60;94.30;;;;;;5013497;28;20072;-76
2021/10/15 21:49:33;;;;;;;12.93;7.40;;;12.60;94.20;;;;;;5013151;28;20050;-77
2021/10/15 21:51:59;;;;;;;11.55;7.70;;;12.60;94.20;;;;;;5013303;28;20457;-79
2021/10/15 21:54:24;;;;;;;19.38;10.40;;;12.60;94.20;;;;;;5013582;28;20034;-79
2021/10/15 21:56:50;;;;;;;15.10;9.15;;;12.60;94.20;;;;;;5013442;28;20034;-77
2021/10/15 21:59:16;;;;;;;13.05;8.93;;;12.60;94.20;;;;;;5013182;28;20022;-77
2021/10/15 22:01:42;;;;;;;12.05;7.60;;;12.60;94.20;;;;;;5009702;28;20037;-78
2021/10/15 22:04:07;;;;;;;11.68;7.28;;;12.60;94.20;;;;;;4993755;28;20038;-77
2021/10/15 22:06:33;;;;;;;20.90;9.75;;;12.60;94.20;;;;;;4997900;28;20573;-77
2021/10/15 22:08:59;;;;;;;11.13;7.18;;;12.60;94.20;;;;;;5013157;28;20525;-75
2021/10/15 22:11:25;;;;;;;12.75;7.57;;;12.60;94.40;;;;;;5027603;28;20042;-77
2021/10/15 22:13:51;;;;;;;15.45;7.80;;;12.50;94.30;;;;;;5012844;28;20402;-76
2021/10/15 22:16:17;;;;;;;11.77;7.68;;;12.50;93.90;;;;;;5012563;28;20030;-76
2021/10/15 22:18:43;;;;;;;18.73;8.52;;;12.60;93.70;;;;;;5028130;28;20349;-76
2021/10/15 22:21:09;;;;;;;14.80;8.98;;;12.50;93.80;;;;;;5012757;28;20038;-76
2021/10/15 22:23:36;;;;;;;9.00;6.72;;;12.50;93.90;;;;;;5012464;28;20065;-75
2021/10/15 22:26:02;;;;;;;15.65;7.10;;;12.50;93.90;;;;;;5002068;28;20039;-76
2021/10/15 22:28:28;;;;;;;13.50;6.72;;;12.60;93.90;;;;;;5009077;28;21564;-75
2021/10/15 22:30:53;;;;;;;13.07;7.20;;;12.50;93.90;;;;;;5012210;28;20038;-77
2021/10/15 22:33:19;;;;;;;13.70;7.15;;;12.60;94.00;;;;;;5003571;28;20034;-76
2021/10/15 22:35:45;;;;;;;12.70;7.72;;;12.60;94.10;;;;;;5024262;28;20033;-75
2021/10/15 22:38:11;;;;;;;12.20;7.38;;;12.50;93.90;;;;;;5012977;28;20088;-77
2021/10/15 22:40:37;;;;;;;15.95;7.47;;;12.50;94.10;;;;;;5010960;28;20026;-77
2021/10/15 22:43:02;;;;;;;12.38;7.03;;;12.50;94.20;;;;;;5004548;28;20076;-76
2021/10/15 22:45:29;;;;;;;11.82;7.40;;;12.50;94.30;;;;;;5012152;28;20030;-75
2021/10/15 22:47:55;;;;;;;10.85;7.45;;;12.60;94.30;;;;;;5001848;28;20042;-76
2021/10/15 22:50:20;;;;;;;11.70;6.90;;;12.50;94.20;;;;;;5010714;28;20521;-78
2021/10/15 22:52:47;;;;;;;9.55;6.50;;;12.50;94.00;;;;;;5011864;28;20046;-76
2021/10/15 22:55:14;;;;;;;10.50;6.05;;;12.50;94.00;;;;;;5028436;28;20438;-78
2021/10/15 22:57:41;;;;;;;10.70;6.68;;;12.50;94.20;;;;;;5012841;28;20034;-77
2021/10/15 23:00:11;;;;;;;19.77;8.77;;;12.50;94.20;;;;;;5013171;28;20462;-77
2021/10/15 23:02:39;;;;;;;10.40;6.57;;;12.40;94.30;;;;;;5012777;28;20448;-78
2021/10/15 23:05:08;;;;;;;12.35;6.75;;;12.40;94.50;;;;;;4999447;28;20041;-77
2021/10/15 23:07:34;;;;;;;17.95;8.85;;;12.40;94.30;;;;;;5012487;28;20515;-76
2021/10/15 23:10:00;;;;;;;15.70;8.15;;;12.40;93.90;;;;;;5012351;28;20048;-77
2021/10/15 23:12:26;;;;;;;10.85;6.40;;;12.40;94.00;;;;;;5012642;28;20089;-77
2021/10/15 23:14:51;;;;;;;7.97;5.88;;;12.30;94.00;;;;;;5012829;28;20049;-78
2021/10/15 23:17:17;;;;;;;12.43;7.55;;;12.40;93.90;;;;;;5003789;28;20026;-77
2021/10/15 23:19:43;;;;;;;10.95;6.43;;;12.40;93.80;;;;;;5003649;28;20069;-75
2021/10/15 23:22:09;;;;;;;17.70;8.48;;;12.30;93.70;;;;;;5012062;28;20401;-78
2021/10/15 23:24:35;;;;;;;9.85;6.28;;;12.30;93.60;;;;;;5012693;28;20466;-77
2021/10/15 23:27:01;;;;;;;11.20;7.35;;;12.30;93.80;;;;;;5012345;28;20044;-76
2021/10/15 23:29:27;;;;;;;8.88;6.07;;;12.30;93.70;;;;;;5012476;28;20034;-78
2021/10/15 23:31:52;;;;;;;9.63;6.03;;;12.30;93.90;;;;;;5012208;28;20044;-77
2021/10/15 23:34:18;;;;;;;15.93;8.25;;;12.20;93.70;;;;;;5012054;28;20018;-78
2021/10/15 23:36:44;;;;;;;17.23;8.43;;;12.30;93.80;;;;;;5005428;28;20344;-76
2021/10/15 23:39:09;;;;;;;8.65;6.20;;;12.20;93.80;;;;;;5011994;28;20037;-77
2021/10/15 23:41:35;;;;;;;10.80;5.53;;;12.20;93.80;;;;;;5011217;28;20040;-77
2021/10/15 23:44:01;;;;;;;15.52;8.93;;;12.20;93.90;;;;;;5003250;28;20045;-78
2021/10/15 23:46:26;;;;;;;12.85;7.70;;;12.10;94.10;;;;;;5009234;28;20034;-77
2021/10/15 23:48:52;;;;;;;16.42;7.75;;;12.10;94.00;;;;;;5018940;28;20033;-77
2021/10/15 23:51:17;;;;;;;12.35;7.10;;;12.00;93.70;;;;;;5012124;28;20026;-78
2021/10/15 23:53:43;;;;;;;11.40;6.07;;;12.00;93.70;;;;;;5031236;28;20501;-78
2021/10/15 23:56:09;;;;;;;16.00;6.30;;;12.00;93.70;;;;;;5012005;28;20022;-77
2021/10/15 23:58:34;;;;;;;10.70;5.97;;;12.00;93.50;;;;;;5026131;28;20486;-77
